sensor_id;sensor_type;location;lat;lon;timestamp;pressure;altitude;pressure_sealevel;temperature;humidity
42285;BME280;27942;47.510;18.966;2022-12-04T00:01:14;-15255.88;;;1.93;100.00
42285;BME280;27942;47.510;18.966;2022-12-04T00:03:40;-15256.19;;;1.94;100.00
42285;BME280;27942;47.510;18.966;2022-12-04T00:06:11;-15256.34;;;1.95;100.00
42285;BME280;27942;47.510;18.966;2022-12-04T00:08:37;-15253.84;;;1.87;100.00
42285;BME280;27942;47.510;18.966;2022-12-04T00:11:04;-15252.94;;;1.84;100.00
42285;BME280;27942;47.510;18.966;2022-12-04T00:13:30;-15255.41;;;1.92;100.00
42285;BME280;27942;47.510;18.966;2022-12-04T00:15:55;-15256.66;;;1.96;100.00
42285;BME280;27942;47.510;18.966;2022-12-04T00:18:20;-15256.19;;;1.94;100.00
42285;BME280;27942;47.510;18.966;2022-12-04T00:20:46;-15252.59;;;1.83;100.00
42285;BME280;27942;47.510;18.966;2022-12-04T00:23:12;-15254.47;;;1.89;100.00
42285;BME280;27942;47.510;18.966;2022-12-04T00:25:37;-15254.63;;;1.89;100.00
42285;BME280;27942;47.510;18.966;2022-12-04T00:28:03;-15253.69;;;1.86;100.00
42285;BME280;27942;47.510;18.966;2022-12-04T00:30:28;-15253.69;;;1.86;100.00
42285;BME280;27942;47.510;18.966;2022-12-04T00:32:53;-15253.69;;;1.86;100.00
42285;BME280;27942;47.510;18.966;2022-12-04T00:35:18;-15253.38;;;1.85;100.00
42285;BME280;27942;47.510;18.966;2022-12-04T00:37:44;-15253.38;;;1.85;100.00
42285;BME280;27942;47.510;18.966;2022-12-04T00:40:09;-15248.13;;;1.68;100.00
42285;BME280;27942;47.510;18.966;2022-12-04T00:42:35;-15247.03;;;1.64;100.00
42285;BME280;27942;47.510;18.966;2022-12-04T00:45:00;-15245.00;;;1.58;100.00
42285;BME280;27942;47.510;18.966;2022-12-04T00:47:25;-15246.56;;;1.63;100.00
42285;BME280;27942;47.510;18.966;2022-12-04T00:49:51;-15245.47;;;1.59;100.00
42285;BME280;27942;47.510;18.966;2022-12-04T00:52:16;-15241.91;;;1.47;100.00
42285;BME280;27942;47.510;18.966;2022-12-04T00:54:41;-15238.19;;;1.35;100.00
42285;BME280;27942;47.510;18.966;2022-12-04T00:57:07;-15239.28;;;1.39;100.00
42285;BME280;27942;47.510;18.966;2022-12-04T00:59:32;-15240.81;;;1.44;100.00
42285;BME280;27942;47.510;18.966;2022-12-04T01:01:57;-15238.34;;;1.36;100.00
42285;BME280;27942;47.510;18.966;2022-12-04T01:04:23;-15240.69;;;1.43;100.00
42285;BME280;27942;47.510;18.966;2022-12-04T01:06:48;-15242.06;;;1.48;100.00
42285;BME280;27942;47.510;18.966;2022-12-04T01:09:13;-15240.53;;;1.43;100.00
42285;BME280;27942;47.510;18.966;2022-12-04T01:11:39;-15241.13;;;1.45;100.00
42285;BME280;27942;47.510;18.966;2022-12-04T01:14:04;-15239.91;;;1.41;100.00
42285;BME280;27942;47.510;18.966;2022-12-04T01:16:35;-15239.75;;;1.40;100.00
42285;BME280;27942;47.510;18.966;2022-12-04T01:19:03;-15237.41;;;1.33;100.00
42285;BME280;27942;47.510;18.966;2022-12-04T01:21:29;-15237.25;;;1.32;100.00
42285;BME280;27942;47.510;18.966;2022-12-04T01:23:54;-15238.19;;;1.35;100.00
42285;BME280;27942;47.510;18.966;2022-12-04T01:26:20;-15241.28;;;1.45;100.00
42285;BME280;27942;47.510;18.966;2022-12-04T01:28:45;-15242.53;;;1.49;100.00
42285;BME280;27942;47.510;18.966;2022-12-04T01:31:13;-15245.31;;;1.59;100.00
42285;BME280;27942;47.510;18.966;2022-12-04T01:33:40;-15245.94;;;1.61;100.00
42285;BME280;27942;47.510;18.966;2022-12-04T01:36:07;-15245.16;;;1.58;100.00
42285;BME280;27942;47.510;18.966;2022-12-04T01:38:34;-15246.09;;;1.61;100.00
42285;BME280;27942;47.510;18.966;2022-12-04T01:40:59;-15250.91;;;1.77;100.00
42285;BME280;27942;47.510;18.966;2022-12-04T01:43:28;-15251.38;;;1.78;100.00
42285;BME280;27942;47.510;18.966;2022-12-04T01:45:56;-15252.75;;;1.83;100.00
42285;BME280;27942;47.510;18.966;2022-12-04T01:48:34;-15253.09;;;1.84;100.00
42285;BME280;27942;47.510;18.966;2022-12-04T01:53:49;-15254.31;;;1.88;100.00
42285;BME280;27942;47.510;18.966;2022-12-04T01:56:15;-15251.53;;;1.79;100.00
42285;BME280;27942;47.510;18.966;2022-12-04T01:58:45;-15252.47;;;1.82;100.00
42285;BME280;27942;47.510;18.966;2022-12-04T02:01:12;-15255.72;;;1.93;100.00
42285;BME280;27942;47.510;18.966;2022-12-04T02:03:37;-15255.72;;;1.93;100.00
42285;BME280;27942;47.510;18.966;2022-12-04T02:06:04;-15254.47;;;1.89;100.00
42285;BME280;27942;47.510;18.966;2022-12-04T02:08:29;-15254.31;;;1.88;100.00
42285;BME280;27942;47.510;18.966;2022-12-04T02:11:04;-15254.00;;;1.87;100.00
42285;BME280;27942;47.510;18.966;2022-12-04T02:13:51;-15253.69;;;1.86;100.00
42285;BME280;27942;47.510;18.966;2022-12-04T02:21:35;-15251.06;;;1.77;100.00
42285;BME280;27942;47.510;18.966;2022-12-04T02:26:58;-15251.22;;;1.78;100.00
42285;BME280;27942;47.510;18.966;2022-12-04T02:29:43;-15249.03;;;1.71;100.00
42285;BME280;27942;47.510;18.966;2022-12-04T02:35:19;-15248.91;;;1.70;100.00
42285;BME280;27942;47.510;18.966;2022-12-04T02:37:51;-15245.63;;;1.60;100.00
42285;BME280;27942;47.510;18.966;2022-12-04T02:40:35;-15246.25;;;1.62;100.00
42285;BME280;27942;47.510;18.966;2022-12-04T02:43:16;-15244.72;;;1.57;100.00
42285;BME280;27942;47.510;18.966;2022-12-04T02:45:47;-15237.72;;;1.34;100.00
42285;BME280;27942;47.510;18.966;2022-12-04T02:48:18;-15238.66;;;1.37;100.00
42285;BME280;27942;47.510;18.966;2022-12-04T02:50:45;-15241.59;;;1.46;100.00
42285;BME280;27942;47.510;18.966;2022-12-04T02:53:16;-15235.41;;;1.26;100.00
42285;BME280;27942;47.510;18.966;2022-12-04T02:55:51;-15238.19;;;1.35;100.00
42285;BME280;27942;47.510;18.966;2022-12-04T02:58:25;-15237.88;;;1.34;100.00
42285;BME280;27942;47.510;18.966;2022-12-04T03:00:55;-15238.03;;;1.35;100.00
42285;BME280;27942;47.510;18.966;2022-12-04T03:03:27;-15238.50;;;1.36;100.00
42285;BME280;27942;47.510;18.966;2022-12-04T03:06:00;-15238.34;;;1.36;100.00
42285;BME280;27942;47.510;18.966;2022-12-04T03:08:55;-15241.13;;;1.45;100.00
42285;BME280;27942;47.510;18.966;2022-12-04T03:11:25;-15240.38;;;1.42;100.00
42285;BME280;27942;47.510;18.966;2022-12-04T03:14:15;-15237.09;;;1.32;100.00
42285;BME280;27942;47.510;18.966;2022-12-04T03:16:42;-15238.81;;;1.37;100.00
42285;BME280;27942;47.510;18.966;2022-12-04T03:21:38;-15236.78;;;1.31;100.00
42285;BME280;27942;47.510;18.966;2022-12-04T03:27:15;-15236.50;;;1.30;100.00
42285;BME280;27942;47.510;18.966;2022-12-04T03:29:49;-15235.72;;;1.27;100.00
42285;BME280;27942;47.510;18.966;2022-12-04T03:32:24;-15231.69;;;1.14;100.00
42285;BME280;27942;47.510;18.966;2022-12-04T03:35:00;-15233.09;;;1.18;100.00
42285;BME280;27942;47.510;18.966;2022-12-04T03:37:44;-15231.69;;;1.14;100.00
42285;BME280;27942;47.510;18.966;2022-12-04T03:40:21;-15234.47;;;1.23;100.00
42285;BME280;27942;47.510;18.966;2022-12-04T03:43:05;-15232.94;;;1.18;100.00
42285;BME280;27942;47.510;18.966;2022-12-04T03:45:45;-15232.00;;;1.15;100.00
42285;BME280;27942;47.510;18.966;2022-12-04T03:48:16;-15230.59;;;1.10;100.00
42285;BME280;27942;47.510;18.966;2022-12-04T03:53:23;-15231.53;;;1.13;100.00
42285;BME280;27942;47.510;18.966;2022-12-04T03:58:34;-15231.84;;;1.14;100.00
42285;BME280;27942;47.510;18.966;2022-12-04T04:01:03;-15230.91;;;1.11;100.00
42285;BME280;27942;47.510;18.966;2022-12-04T04:03:35;-15232.63;;;1.17;100.00
42285;BME280;27942;47.510;18.966;2022-12-04T04:06:08;-15228.75;;;1.04;100.00
42285;BME280;27942;47.510;18.966;2022-12-04T04:08:38;-15230.28;;;1.09;100.00
42285;BME280;27942;47.510;18.966;2022-12-04T04:11:09;-15232.94;;;1.18;100.00
42285;BME280;27942;47.510;18.966;2022-12-04T04:13:42;-15231.22;;;1.12;100.00
42285;BME280;27942;47.510;18.966;2022-12-04T04:16:30;-15231.38;;;1.13;100.00
42285;BME280;27942;47.510;18.966;2022-12-04T04:19:16;-15231.84;;;1.14;100.00
42285;BME280;27942;47.510;18.966;2022-12-04T04:22:05;-15231.38;;;1.13;100.00
42285;BME280;27942;47.510;18.966;2022-12-04T04:24:55;-15227.97;;;1.01;100.00
42285;BME280;27942;47.510;18.966;2022-12-04T04:27:22;-15231.06;;;1.12;100.00
42285;BME280;27942;47.510;18.966;2022-12-04T04:29:47;-15229.66;;;1.07;100.00
42285;BME280;27942;47.510;18.966;2022-12-04T04:32:21;-15231.38;;;1.13;100.00
42285;BME280;27942;47.510;18.966;2022-12-04T04:35:06;-15228.13;;;1.02;100.00
42285;BME280;27942;47.510;18.966;2022-12-04T04:40:38;-15227.34;;;0.99;100.00
42285;BME280;27942;47.510;18.966;2022-12-04T04:43:15;-15226.72;;;0.97;100.00
42285;BME280;27942;47.510;18.966;2022-12-04T04:45:56;-15223.16;;;0.86;100.00
42285;BME280;27942;47.510;18.966;2022-12-04T04:48:31;-15224.25;;;0.89;100.00
42285;BME280;27942;47.510;18.966;2022-12-04T04:50:59;-15223.16;;;0.86;100.00
42285;BME280;27942;47.510;18.966;2022-12-04T04:53:29;-15224.88;;;0.91;100.00
42285;BME280;27942;47.510;18.966;2022-12-04T04:55:58;-15224.56;;;0.90;100.00
42285;BME280;27942;47.510;18.966;2022-12-04T04:58:23;-15220.69;;;0.77;100.00
42285;BME280;27942;47.510;18.966;2022-12-04T05:01:04;-15224.56;;;0.90;100.00
42285;BME280;27942;47.510;18.966;2022-12-04T05:03:32;-15225.16;;;0.92;100.00
42285;BME280;27942;47.510;18.966;2022-12-04T05:05:57;-15221.75;;;0.81;100.00
42285;BME280;27942;47.510;18.966;2022-12-04T05:08:23;-15225.47;;;0.93;100.00
42285;BME280;27942;47.510;18.966;2022-12-04T05:10:48;-15225.31;;;0.93;100.00
42285;BME280;27942;47.510;18.966;2022-12-04T05:13:14;-15223.94;;;0.88;100.00
42285;BME280;27942;47.510;18.966;2022-12-04T05:15:40;-15224.41;;;0.90;100.00
42285;BME280;27942;47.510;18.966;2022-12-04T05:18:06;-15222.69;;;0.84;100.00
42285;BME280;27942;47.510;18.966;2022-12-04T05:20:32;-15223.31;;;0.86;100.00
42285;BME280;27942;47.510;18.966;2022-12-04T05:22:57;-15222.06;;;0.82;100.00
42285;BME280;27942;47.510;18.966;2022-12-04T05:25:23;-15227.66;;;1.00;100.00
42285;BME280;27942;47.510;18.966;2022-12-04T05:27:48;-15224.72;;;0.91;100.00
42285;BME280;27942;47.510;18.966;2022-12-04T05:30:14;-15225.31;;;0.93;100.00
42285;BME280;27942;47.510;18.966;2022-12-04T05:32:39;-15226.25;;;0.96;100.00
42285;BME280;27942;47.510;18.966;2022-12-04T05:35:05;-15226.41;;;0.96;100.00
42285;BME280;27942;47.510;18.966;2022-12-04T05:37:30;-15227.34;;;0.99;100.00
42285;BME280;27942;47.510;18.966;2022-12-04T05:39:55;-15227.19;;;0.99;100.00
42285;BME280;27942;47.510;18.966;2022-12-04T05:42:21;-15226.72;;;0.97;100.00
42285;BME280;27942;47.510;18.966;2022-12-04T05:44:48;-15224.88;;;0.91;100.00
42285;BME280;27942;47.510;18.966;2022-12-04T05:47:14;-15227.81;;;1.01;100.00
42285;BME280;27942;47.510;18.966;2022-12-04T05:49:39;-15229.19;;;1.06;100.00
42285;BME280;27942;47.510;18.966;2022-12-04T05:52:05;-15227.03;;;0.98;100.00
42285;BME280;27942;47.510;18.966;2022-12-04T05:54:30;-15228.59;;;1.04;100.00
42285;BME280;27942;47.510;18.966;2022-12-04T05:56:55;-15230.13;;;1.09;100.00
42285;BME280;27942;47.510;18.966;2022-12-04T05:59:21;-15228.59;;;1.04;100.00
42285;BME280;27942;47.510;18.966;2022-12-04T06:01:46;-15231.22;;;1.12;100.00
42285;BME280;27942;47.510;18.966;2022-12-04T06:04:11;-15227.97;;;1.01;100.00
42285;BME280;27942;47.510;18.966;2022-12-04T06:06:37;-15224.25;;;0.89;100.00
42285;BME280;27942;47.510;18.966;2022-12-04T06:09:03;-15224.56;;;0.90;100.00
42285;BME280;27942;47.510;18.966;2022-12-04T06:11:32;-15225.16;;;0.92;100.00
42285;BME280;27942;47.510;18.966;2022-12-04T06:13:58;-15227.03;;;0.98;100.00
42285;BME280;27942;47.510;18.966;2022-12-04T06:16:27;-15225.78;;;0.94;100.00
42285;BME280;27942;47.510;18.966;2022-12-04T06:18:55;-15224.88;;;0.91;100.00
42285;BME280;27942;47.510;18.966;2022-12-04T06:21:22;-15226.72;;;0.97;100.00
42285;BME280;27942;47.510;18.966;2022-12-04T06:23:47;-15225.94;;;0.95;100.00
42285;BME280;27942;47.510;18.966;2022-12-04T06:26:13;-15227.03;;;0.98;100.00
42285;BME280;27942;47.510;18.966;2022-12-04T06:28:38;-15225.78;;;0.94;100.00
42285;BME280;27942;47.510;18.966;2022-12-04T06:31:06;-15226.56;;;0.97;100.00
42285;BME280;27942;47.510;18.966;2022-12-04T06:33:32;-15227.97;;;1.01;100.00
42285;BME280;27942;47.510;18.966;2022-12-04T06:36:03;-15227.66;;;1.00;100.00
42285;BME280;27942;47.510;18.966;2022-12-04T06:38:29;-15230.44;;;1.10;100.00
42285;BME280;27942;47.510;18.966;2022-12-04T06:40:55;-15231.69;;;1.14;100.00
42285;BME280;27942;47.510;18.966;2022-12-04T06:43:21;-15232.63;;;1.17;100.00
42285;BME280;27942;47.510;18.966;2022-12-04T06:45:46;-15232.47;;;1.16;100.00
42285;BME280;27942;47.510;18.966;2022-12-04T06:48:11;-15233.53;;;1.20;100.00
42285;BME280;27942;47.510;18.966;2022-12-04T06:50:37;-15236.66;;;1.30;100.00
42285;BME280;27942;47.510;18.966;2022-12-04T06:53:02;-15234.16;;;1.22;100.00
42285;BME280;27942;47.510;18.966;2022-12-04T06:55:27;-15234.00;;;1.21;100.00
42285;BME280;27942;47.510;18.966;2022-12-04T06:57:53;-15232.16;;;1.15;100.00
42285;BME280;27942;47.510;18.966;2022-12-04T07:00:18;-15230.59;;;1.10;100.00
42285;BME280;27942;47.510;18.966;2022-12-04T07:02:43;-15230.75;;;1.11;100.00
42285;BME280;27942;47.510;18.966;2022-12-04T07:05:08;-15228.28;;;1.02;100.00
42285;BME280;27942;47.510;18.966;2022-12-04T07:07:35;-15232.63;;;1.17;100.00
42285;BME280;27942;47.510;18.966;2022-12-04T07:10:02;-15229.50;;;1.07;100.00
42285;BME280;27942;47.510;18.966;2022-12-04T07:12:27;-15230.91;;;1.11;100.00
42285;BME280;27942;47.510;18.966;2022-12-04T07:14:53;-15227.66;;;1.00;100.00
42285;BME280;27942;47.510;18.966;2022-12-04T07:17:18;-15230.13;;;1.09;100.00
42285;BME280;27942;47.510;18.966;2022-12-04T07:19:43;-15231.22;;;1.12;100.00
42285;BME280;27942;47.510;18.966;2022-12-04T07:22:08;-15229.34;;;1.06;100.00
42285;BME280;27942;47.510;18.966;2022-12-04T07:24:35;-15229.50;;;1.07;100.00
42285;BME280;27942;47.510;18.966;2022-12-04T07:27:01;-15229.66;;;1.07;100.00
42285;BME280;27942;47.510;18.966;2022-12-04T07:29:26;-15229.97;;;1.08;100.00
42285;BME280;27942;47.510;18.966;2022-12-04T07:31:51;-15232.16;;;1.15;100.00
42285;BME280;27942;47.510;18.966;2022-12-04T07:34:16;-15234.16;;;1.22;100.00
42285;BME280;27942;47.510;18.966;2022-12-04T07:36:42;-15234.63;;;1.23;100.00
42285;BME280;27942;47.510;18.966;2022-12-04T07:39:07;-15234.63;;;1.23;100.00
42285;BME280;27942;47.510;18.966;2022-12-04T07:41:33;-15234.63;;;1.23;100.00
42285;BME280;27942;47.510;18.966;2022-12-04T07:43:58;-15236.34;;;1.29;100.00
42285;BME280;27942;47.510;18.966;2022-12-04T07:46:25;-15236.94;;;1.31;100.00
42285;BME280;27942;47.510;18.966;2022-12-04T07:48:54;-15237.25;;;1.32;100.00
42285;BME280;27942;47.510;18.966;2022-12-04T07:51:22;-15241.59;;;1.46;100.00
42285;BME280;27942;47.510;18.966;2022-12-04T07:53:48;-15239.75;;;1.40;100.00
42285;BME280;27942;47.510;18.966;2022-12-04T07:56:14;-15240.69;;;1.43;100.00
42285;BME280;27942;47.510;18.966;2022-12-04T07:58:40;-15244.25;;;1.55;100.00
42285;BME280;27942;47.510;18.966;2022-12-04T08:03:35;-15242.84;;;1.50;100.00
42285;BME280;27942;47.510;18.966;2022-12-04T08:06:01;-15245.00;;;1.58;100.00
42285;BME280;27942;47.510;18.966;2022-12-04T08:08:27;-15245.16;;;1.58;100.00
42285;BME280;27942;47.510;18.966;2022-12-04T08:10:53;-15243.78;;;1.53;100.00
42285;BME280;27942;47.510;18.966;2022-12-04T08:13:18;-15244.72;;;1.57;100.00
42285;BME280;27942;47.510;18.966;2022-12-04T08:15:43;-15244.72;;;1.57;100.00
42285;BME280;27942;47.510;18.966;2022-12-04T08:18:09;-15243.94;;;1.54;100.00
42285;BME280;27942;47.510;18.966;2022-12-04T08:20:34;-15244.41;;;1.56;100.00
42285;BME280;27942;47.510;18.966;2022-12-04T08:22:59;-15244.72;;;1.57;100.00
42285;BME280;27942;47.510;18.966;2022-12-04T08:25:25;-15247.97;;;1.67;100.00
42285;BME280;27942;47.510;18.966;2022-12-04T08:27:51;-15250.13;;;1.74;100.00
42285;BME280;27942;47.510;18.966;2022-12-04T08:30:17;-15249.97;;;1.74;100.00
42285;BME280;27942;47.510;18.966;2022-12-04T08:32:42;-15252.75;;;1.83;100.00
42285;BME280;27942;47.510;18.966;2022-12-04T08:35:07;-15255.41;;;1.92;100.00
42285;BME280;27942;47.510;18.966;2022-12-04T08:37:33;-15255.56;;;1.92;100.00
42285;BME280;27942;47.510;18.966;2022-12-04T08:39:58;-15258.19;;;2.01;100.00
42285;BME280;27942;47.510;18.966;2022-12-04T08:42:23;-15260.53;;;2.09;100.00
42285;BME280;27942;47.510;18.966;2022-12-04T08:44:48;-15258.81;;;2.03;100.00
42285;BME280;27942;47.510;18.966;2022-12-04T08:47:14;-15260.84;;;2.10;100.00
42285;BME280;27942;47.510;18.966;2022-12-04T08:49:39;-15262.38;;;2.15;100.00
42285;BME280;27942;47.510;18.966;2022-12-04T08:52:04;-15265.31;;;2.24;100.00
42285;BME280;27942;47.510;18.966;2022-12-04T08:54:30;-15267.81;;;2.33;100.00
42285;BME280;27942;47.510;18.966;2022-12-04T08:56:55;-15266.41;;;2.28;100.00
42285;BME280;27942;47.510;18.966;2022-12-04T08:59:20;-15266.25;;;2.27;100.00
42285;BME280;27942;47.510;18.966;2022-12-04T09:01:49;-15269.19;;;2.37;100.00
42285;BME280;27942;47.510;18.966;2022-12-04T09:04:15;-15269.50;;;2.38;100.00
42285;BME280;27942;47.510;18.966;2022-12-04T09:06:40;-15269.81;;;2.39;100.00
42285;BME280;27942;47.510;18.966;2022-12-04T09:09:06;-15271.69;;;2.45;100.00
42285;BME280;27942;47.510;18.966;2022-12-04T09:11:31;-15273.84;;;2.52;100.00
42285;BME280;27942;47.510;18.966;2022-12-04T09:13:57;-15273.84;;;2.52;100.00
42285;BME280;27942;47.510;18.966;2022-12-04T09:16:23;-15275.25;;;2.57;100.00
42285;BME280;27942;47.510;18.966;2022-12-04T09:18:50;-15278.97;;;2.69;100.00
42285;BME280;27942;47.510;18.966;2022-12-04T09:21:18;-15277.88;;;2.66;100.00
42285;BME280;27942;47.510;18.966;2022-12-04T09:23:43;-15280.53;;;2.74;100.00
42285;BME280;27942;47.510;18.966;2022-12-04T09:26:21;-15281.59;;;2.78;100.00
42285;BME280;27942;47.510;18.966;2022-12-04T09:28:48;-15282.53;;;2.81;100.00
42285;BME280;27942;47.510;18.966;2022-12-04T09:31:14;-15284.72;;;2.88;100.00
42285;BME280;27942;47.510;18.966;2022-12-04T09:33:40;-15281.75;;;2.78;100.00
42285;BME280;27942;47.510;18.966;2022-12-04T09:36:05;-15284.72;;;2.88;100.00
42285;BME280;27942;47.510;18.966;2022-12-04T09:38:30;-15285.94;;;2.92;100.00
42285;BME280;27942;47.510;18.966;2022-12-04T09:46:09;-15285.78;;;2.92;100.00
42285;BME280;27942;47.510;18.966;2022-12-04T09:48:38;-15285.63;;;2.91;100.00
42285;BME280;27942;47.510;18.966;2022-12-04T09:51:07;-15286.25;;;2.93;100.00
42285;BME280;27942;47.510;18.966;2022-12-04T09:54:21;-15288.28;;;3.00;100.00
42285;BME280;27942;47.510;18.966;2022-12-04T09:56:58;-15286.09;;;2.93;100.00
42285;BME280;27942;47.510;18.966;2022-12-04T09:59:27;-15289.22;;;3.03;100.00
42285;BME280;27942;47.510;18.966;2022-12-04T10:02:06;-15290.13;;;3.06;100.00
42285;BME280;27942;47.510;18.966;2022-12-04T10:04:40;-15296.50;;;3.27;100.00
42285;BME280;27942;47.510;18.966;2022-12-04T10:07:19;-15299.44;;;3.37;100.00
42285;BME280;27942;47.510;18.966;2022-12-04T10:10:09;-15301.31;;;3.43;100.00
42285;BME280;27942;47.510;18.966;2022-12-04T10:12:49;-15304.41;;;3.53;100.00
42285;BME280;27942;47.510;18.966;2022-12-04T10:15:37;-15305.63;;;3.57;100.00
42285;BME280;27942;47.510;18.966;2022-12-04T10:18:15;-15304.72;;;3.54;100.00
42285;BME280;27942;47.510;18.966;2022-12-04T10:26:40;-15307.97;;;3.65;100.00
42285;BME280;27942;47.510;18.966;2022-12-04T10:29:23;-15311.22;;;3.75;100.00
42285;BME280;27942;47.510;18.966;2022-12-04T10:31:53;-15310.16;;;3.72;100.00
42285;BME280;27942;47.510;18.966;2022-12-04T10:34:27;-15314.31;;;3.85;100.00
42285;BME280;27942;47.510;18.966;2022-12-04T10:36:57;-15316.66;;;3.93;100.00
42285;BME280;27942;47.510;18.966;2022-12-04T10:40:08;-15316.81;;;3.94;100.00
42285;BME280;27942;47.510;18.966;2022-12-04T10:42:42;-15315.09;;;3.88;100.00
42285;BME280;27942;47.510;18.966;2022-12-04T10:45:11;-15314.16;;;3.85;100.00
42285;BME280;27942;47.510;18.966;2022-12-04T10:47:39;-15317.75;;;3.97;100.00
42285;BME280;27942;47.510;18.966;2022-12-04T10:50:15;-15322.53;;;4.13;100.00
42285;BME280;27942;47.510;18.966;2022-12-04T10:52:42;-15324.41;;;4.19;100.00
42285;BME280;27942;47.510;18.966;2022-12-04T10:55:08;-15320.22;;;4.05;100.00
42285;BME280;27942;47.510;18.966;2022-12-04T10:57:44;-15318.19;;;3.98;100.00
42285;BME280;27942;47.510;18.966;2022-12-04T11:00:31;-15321.00;;;4.07;100.00
42285;BME280;27942;47.510;18.966;2022-12-04T11:02:59;-15320.84;;;4.07;100.00
42285;BME280;27942;47.510;18.966;2022-12-04T11:07:51;-15318.34;;;3.99;100.00
42285;BME280;27942;47.510;18.966;2022-12-04T11:10:37;-15325.03;;;4.21;100.00
42285;BME280;27942;47.510;18.966;2022-12-04T11:15:42;-15325.34;;;4.22;100.00
42285;BME280;27942;47.510;18.966;2022-12-04T11:18:19;-15331.22;;;4.41;100.00
42285;BME280;27942;47.510;18.966;2022-12-04T11:20:51;-15330.00;;;4.37;100.00
42285;BME280;27942;47.510;18.966;2022-12-04T11:23:18;-15329.06;;;4.34;100.00
42285;BME280;27942;47.510;18.966;2022-12-04T11:25:46;-15327.66;;;4.29;100.00
42285;BME280;27942;47.510;18.966;2022-12-04T11:28:17;-15336.81;;;4.59;100.00
42285;BME280;27942;47.510;18.966;2022-12-04T11:30:48;-15340.84;;;4.73;100.00
42285;BME280;27942;47.510;18.966;2022-12-04T11:33:26;-15343.19;;;4.80;100.00
42285;BME280;27942;47.510;18.966;2022-12-04T11:35:54;-15341.63;;;4.75;100.00
42285;BME280;27942;47.510;18.966;2022-12-04T11:38:24;-15342.72;;;4.79;100.00
42285;BME280;27942;47.510;18.966;2022-12-04T11:40:54;-15337.44;;;4.61;100.00
42285;BME280;27942;47.510;18.966;2022-12-04T11:43:24;-15337.75;;;4.63;100.00
42285;BME280;27942;47.510;18.966;2022-12-04T11:45:58;-15337.13;;;4.60;100.00
42285;BME280;27942;47.510;18.966;2022-12-04T11:48:25;-15338.84;;;4.66;100.00
42285;BME280;27942;47.510;18.966;2022-12-04T11:56:28;-15344.88;;;4.86;100.00
42285;BME280;27942;47.510;18.966;2022-12-04T11:59:10;-15345.97;;;4.90;100.00
42285;BME280;27942;47.510;18.966;2022-12-04T12:01:59;-15348.28;;;4.97;100.00
42285;BME280;27942;47.510;18.966;2022-12-04T12:07:31;-15345.50;;;4.88;100.00
42285;BME280;27942;47.510;18.966;2022-12-04T12:10:03;-15346.28;;;4.91;100.00
42285;BME280;27942;47.510;18.966;2022-12-04T12:15:58;-15346.75;;;4.92;100.00
42285;BME280;27942;47.510;18.966;2022-12-04T12:21:10;-15343.19;;;4.80;100.00
42285;BME280;27942;47.510;18.966;2022-12-04T12:23:52;-15345.66;;;4.88;100.00
42285;BME280;27942;47.510;18.966;2022-12-04T12:26:28;-15347.06;;;4.93;100.00
42285;BME280;27942;47.510;18.966;2022-12-04T12:29:12;-15346.59;;;4.92;100.00
42285;BME280;27942;47.510;18.966;2022-12-04T12:31:58;-15348.59;;;4.98;100.00
42285;BME280;27942;47.510;18.966;2022-12-04T12:37:49;-15346.59;;;4.92;100.00
42285;BME280;27942;47.510;18.966;2022-12-04T12:40:49;-15346.59;;;4.92;100.00
42285;BME280;27942;47.510;18.966;2022-12-04T12:42:55;-15345.97;;;4.90;100.00
42285;BME280;27942;47.510;18.966;2022-12-04T12:45:43;-15347.06;;;4.93;100.00
42285;BME280;27942;47.510;18.966;2022-12-04T12:50:44;-15345.81;;;4.89;100.00
42285;BME280;27942;47.510;18.966;2022-12-04T12:53:22;-15347.38;;;4.94;100.00
42285;BME280;27942;47.510;18.966;2022-12-04T12:55:52;-15346.44;;;4.91;100.00
42285;BME280;27942;47.510;18.966;2022-12-04T12:58:52;-15349.22;;;5.00;100.00
42285;BME280;27942;47.510;18.966;2022-12-04T13:04:37;-15350.16;;;5.03;100.00
42285;BME280;27942;47.510;18.966;2022-12-04T13:09:47;-15346.91;;;4.93;100.00
42285;BME280;27942;47.510;18.966;2022-12-04T13:12:14;-15348.59;;;4.98;100.00
42285;BME280;27942;47.510;18.966;2022-12-04T13:14:41;-15353.72;;;5.15;100.00
42285;BME280;27942;47.510;18.966;2022-12-04T13:19:45;-15352.94;;;5.12;100.00
42285;BME280;27942;47.510;18.966;2022-12-04T13:22:23;-15352.94;;;5.12;100.00
42285;BME280;27942;47.510;18.966;2022-12-04T13:25:05;-15352.16;;;5.10;100.00
42285;BME280;27942;47.510;18.966;2022-12-04T13:28:11;-15352.16;;;5.10;100.00
42285;BME280;27942;47.510;18.966;2022-12-04T13:30:50;-15350.16;;;5.03;100.00
42285;BME280;27942;47.510;18.966;2022-12-04T13:33:33;-15348.75;;;4.99;100.00
42285;BME280;27942;47.510;18.966;2022-12-04T13:36:28;-15347.38;;;4.94;100.00
42285;BME280;27942;47.510;18.966;2022-12-04T13:39:16;-15347.06;;;4.93;100.00
42285;BME280;27942;47.510;18.966;2022-12-04T13:41:43;-15346.59;;;4.92;100.00
42285;BME280;27942;47.510;18.966;2022-12-04T13:44:23;-15344.25;;;4.84;100.00
42285;BME280;27942;47.510;18.966;2022-12-04T13:46:56;-15345.19;;;4.87;100.00
42285;BME280;27942;47.510;18.966;2022-12-04T13:49:37;-15344.25;;;4.84;100.00
42285;BME280;27942;47.510;18.966;2022-12-04T13:52:24;-15345.34;;;4.87;100.00
42285;BME280;27942;47.510;18.966;2022-12-04T13:55:00;-15344.25;;;4.84;100.00
42285;BME280;27942;47.510;18.966;2022-12-04T13:57:27;-15344.25;;;4.84;100.00
42285;BME280;27942;47.510;18.966;2022-12-04T14:00:23;-15341.78;;;4.76;100.00
42285;BME280;27942;47.510;18.966;2022-12-04T14:02:52;-15340.38;;;4.71;100.00
42285;BME280;27942;47.510;18.966;2022-12-04T14:05:23;-15342.25;;;4.77;100.00
42285;BME280;27942;47.510;18.966;2022-12-04T14:08:05;-15341.78;;;4.76;100.00
42285;BME280;27942;47.510;18.966;2022-12-04T14:10:34;-15337.75;;;4.63;100.00
42285;BME280;27942;47.510;18.966;2022-12-04T14:13:14;-15338.38;;;4.65;100.00